Elmont, NY

5:05 PM EDT on June 02, 2015 (GMT -0400)
Just West of Town Hall | | Change Station
CLOSE
Current Station
Personal Weather Station
Location: Floral Park, NY
Elevation: 78 ft
Nearby Weather Stations

Elev 78 ft 40.72 °N, 73.71 °W | Updated 16 seconds ago

Overcast
Overcast
54.0 °F
Feels Like 54.0 °F
N
0.0
Wind Variable Wind from North
Gusts 4.0 mph

Today
High -- | Low -- °F
--% Chance of Precip.
Yesterday
High -- | Low -- °F
Precip. -- in
5:25 AM 8:20 PM
Full, 100% visible
Pressure 30.14 in
Visibility 9.0 miles
Clouds Few 800 ft
Mostly Cloudy 1100 ft
Overcast 1600 ft
Dew Point 54 °F
Humidity 100%
Rainfall 0.31 in
Snow Depth Not available.
UV 1 out of 12
Pollen .90 out of 12
Air Quality Not available.
Flu Activity Sporadic
METAR KJFK 022051Z 05008KT 9SM -RA FEW008 BKN011 OVC016 13/10 A3014 RMK AO2 SLP204 P0004 60006 T01280100 55003

More Conditions Fewer Conditions

Pressure 30.14 in
Visibility 9.0 miles
Clouds Few 800 ft
Mostly Cloudy 1100 ft
Overcast 1600 ft
Dew Point 54 °F
Humidity 100%
Rainfall 0.31 in
Snow Depth Not available.
UV 1 out of 12
Pollen .90 out of 12
Air Quality Not available.
Flu Activity Sporadic
METAR KJFK 022051Z 05008KT 9SM -RA FEW008 BKN011 OVC016 13/10 A3014 RMK AO2 SLP204 P0004 60006 T01280100 55003

More Conditions Fewer Conditions

10-Day Weather Forecast

×

Almanac

Astronomy

Jun. 02, 2015 Rise Set
Actual Time
Civil Twilight
Nautical Twilight
Astronomical Twilight
Moon
Length of Visible Light
Length of Day
Tomorrow will be .
, % of the Moon is Illuminated

Today's Extremes

State Highs State Lows

Community

WunderPhotos

Upload Photos

1,826,034 photos uploaded!

WunderBlogs® & News

Nearby

Air Quality

  Air Quality AQ Index Pollutant
Not available.

Snow Depth

Station Depth Elevation

Earthquake Activity

City Distance Mag. Time & Date
Minimum magnitude displayed is 2.5.

Coastal Water Temperatures

Place Temperature

Stations

Nearby Weather Stations

Station Location Temp. Windchill Dew Point Humidity Wind Precip. Elev Updated Type